Landis, Canada
Current Conditions -  °F | °C
As of 3:15 PM on Thursday 18 Dec 2014 (Local Time) from CYQW Reporting Station
Light Snow Light Snow  
Wind Chill:   Ceiling: 500
Heat Index: 18°   Visibility: 9mi
Dew Point: 18°   Wind: 7mph
Humidity: 100%   Direction: 310°NW
Pressure: 29.89"   Gusts: NA
Location:  52.2°N, 108.45°W
Report Text: CYQW 182115Z AUTO 31006KT 240V320 9SM -SN OVC005 M08/M08 A2989 RMK SLP157
Loading
Personal Weather Stations






























Interactive Weather Map New forecast layout! Learn more

10-Day Weather Forecast

Advertisements
Track Severe Weather on mobile